sensor_id;sensor_type;location;lat;lon;timestamp;pressure;altitude;pressure_sealevel;temperature;humidity
62418;BME280;48456;54.242;10.280;2022-07-06T00:01:52;101922.47;;;13.13;100.00
62418;BME280;48456;54.242;10.280;2022-07-06T00:04:19;101921.53;;;13.02;100.00
62418;BME280;48456;54.242;10.280;2022-07-06T00:06:45;101916.19;;;12.93;100.00
62418;BME280;48456;54.242;10.280;2022-07-06T00:09:12;101920.59;;;12.86;100.00
62418;BME280;48456;54.242;10.280;2022-07-06T00:11:38;101923.22;;;12.81;100.00
62418;BME280;48456;54.242;10.280;2022-07-06T00:14:05;101914.38;;;12.82;100.00
62418;BME280;48456;54.242;10.280;2022-07-06T00:16:31;101918.84;;;12.86;100.00
62418;BME280;48456;54.242;10.280;2022-07-06T00:18:58;101917.06;;;12.90;100.00
62418;BME280;48456;54.242;10.280;2022-07-06T00:21:24;101916.22;;;12.96;100.00
62418;BME280;48456;54.242;10.280;2022-07-06T00:23:50;101919.75;;;12.98;100.00
62418;BME280;48456;54.242;10.280;2022-07-06T00:26:18;101909.13;;;12.99;100.00
62418;BME280;48456;54.242;10.280;2022-07-06T00:28:45;101912.69;;;13.05;100.00
62418;BME280;48456;54.242;10.280;2022-07-06T00:31:11;101921.56;;;13.08;100.00
62418;BME280;48456;54.242;10.280;2022-07-06T00:33:37;101912.72;;;13.11;100.00
62418;BME280;48456;54.242;10.280;2022-07-06T00:36:04;101914.44;;;13.07;100.00
62418;BME280;48456;54.242;10.280;2022-07-06T00:38:30;101910.94;;;13.07;100.00
62418;BME280;48456;54.242;10.280;2022-07-06T00:40:57;101911.81;;;13.04;100.00
62418;BME280;48456;54.242;10.280;2022-07-06T00:43:23;101916.22;;;13.04;100.00
62418;BME280;48456;54.242;10.280;2022-07-06T00:45:49;101916.19;;;12.99;100.00
62418;BME280;48456;54.242;10.280;2022-07-06T00:48:16;101915.28;;;12.94;100.00
62418;BME280;48456;54.242;10.280;2022-07-06T00:50:43;101923.25;;;12.88;100.00
62418;BME280;48456;54.242;10.280;2022-07-06T00:53:09;101923.19;;;12.80;100.00
62418;BME280;48456;54.242;10.280;2022-07-06T00:55:37;101922.28;;;12.73;100.00
62418;BME280;48456;54.242;10.280;2022-07-06T00:58:06;101915.19;;;12.66;100.00
62418;BME280;48456;54.242;10.280;2022-07-06T01:00:33;101917.84;;;12.66;100.00
62418;BME280;48456;54.242;10.280;2022-07-06T01:03:00;101916.06;;;12.65;100.00
62418;BME280;48456;54.242;10.280;2022-07-06T01:05:26;101911.66;;;12.65;100.00
62418;BME280;48456;54.242;10.280;2022-07-06T01:07:53;101918.72;;;12.66;100.00
62418;BME280;48456;54.242;10.280;2022-07-06T01:10:20;101913.44;;;12.69;100.00
62418;BME280;48456;54.242;10.280;2022-07-06T01:12:47;101913.47;;;12.72;100.00
62418;BME280;48456;54.242;10.280;2022-07-06T01:15:15;101909.91;;;12.72;100.00
62418;BME280;48456;54.242;10.280;2022-07-06T01:17:42;101917.88;;;12.72;100.00
62418;BME280;48456;54.242;10.280;2022-07-06T01:20:13;101912.56;;;12.75;100.00
62418;BME280;48456;54.242;10.280;2022-07-06T01:22:39;101918.75;;;12.76;100.00
62418;BME280;48456;54.242;10.280;2022-07-06T01:25:06;101910.81;;;12.74;100.00
62418;BME280;48456;54.242;10.280;2022-07-06T01:27:36;101910.81;;;12.72;100.00
62418;BME280;48456;54.242;10.280;2022-07-06T01:30:07;101915.22;;;12.73;100.00
62418;BME280;48456;54.242;10.280;2022-07-06T01:32:34;101911.66;;;12.73;100.00
62418;BME280;48456;54.242;10.280;2022-07-06T01:35:01;101911.66;;;12.73;100.00
62418;BME280;48456;54.242;10.280;2022-07-06T01:37:27;101911.69;;;12.74;100.00
62418;BME280;48456;54.242;10.280;2022-07-06T01:39:57;101906.34;;;12.71;100.00
62418;BME280;48456;54.242;10.280;2022-07-06T01:42:23;101904.59;;;12.73;100.00
62418;BME280;48456;54.242;10.280;2022-07-06T01:44:50;101897.50;;;12.76;100.00
62418;BME280;48456;54.242;10.280;2022-07-06T01:47:23;101907.25;;;12.73;100.00
62418;BME280;48456;54.242;10.280;2022-07-06T01:49:49;101903.72;;;12.74;100.00
62418;BME280;48456;54.242;10.280;2022-07-06T01:52:16;101906.38;;;12.74;100.00
62418;BME280;48456;54.242;10.280;2022-07-06T01:54:42;101904.59;;;12.73;100.00
62418;BME280;48456;54.242;10.280;2022-07-06T01:57:08;101907.25;;;12.72;100.00
62418;BME280;48456;54.242;10.280;2022-07-06T01:59:35;101901.97;;;12.75;100.00
62418;BME280;48456;54.242;10.280;2022-07-06T02:02:01;101909.00;;;12.73;100.00
62418;BME280;48456;54.242;10.280;2022-07-06T02:04:28;101906.34;;;12.73;100.00
62418;BME280;48456;54.242;10.280;2022-07-06T02:06:54;101896.63;;;12.70;100.00
62418;BME280;48456;54.242;10.280;2022-07-06T02:09:21;101900.16;;;12.71;100.00
62418;BME280;48456;54.242;10.280;2022-07-06T02:11:47;101906.34;;;12.71;100.00
62418;BME280;48456;54.242;10.280;2022-07-06T02:14:13;101906.38;;;12.70;100.00
62418;BME280;48456;54.242;10.280;2022-07-06T02:16:40;101903.69;;;12.68;100.00
62418;BME280;48456;54.242;10.280;2022-07-06T02:19:07;101910.75;;;12.68;100.00
62418;BME280;48456;54.242;10.280;2022-07-06T02:21:33;101909.88;;;12.63;100.00
62418;BME280;48456;54.242;10.280;2022-07-06T02:23:59;101913.38;;;12.57;100.00
62418;BME280;48456;54.242;10.280;2022-07-06T02:26:27;101911.63;;;12.59;100.00
62418;BME280;48456;54.242;10.280;2022-07-06T02:28:53;101908.03;;;12.54;100.00
62418;BME280;48456;54.242;10.280;2022-07-06T02:31:19;101898.28;;;12.50;100.00
62418;BME280;48456;54.242;10.280;2022-07-06T02:33:46;101900.94;;;12.45;100.00
62418;BME280;48456;54.242;10.280;2022-07-06T02:36:12;101907.09;;;12.39;100.00
62418;BME280;48456;54.242;10.280;2022-07-06T02:38:38;101907.97;;;12.37;100.00
62418;BME280;48456;54.242;10.280;2022-07-06T02:41:05;101914.13;;;12.34;100.00
62418;BME280;48456;54.242;10.280;2022-07-06T02:43:31;101914.09;;;12.31;100.00
62418;BME280;48456;54.242;10.280;2022-07-06T02:45:57;101912.34;;;12.31;100.00
62418;BME280;48456;54.242;10.280;2022-07-06T02:48:24;101907.91;;;12.30;100.00
62418;BME280;48456;54.242;10.280;2022-07-06T02:50:51;101909.66;;;12.25;100.00
62418;BME280;48456;54.242;10.280;2022-07-06T02:53:18;101910.53;;;12.24;100.00
62418;BME280;48456;54.242;10.280;2022-07-06T02:55:45;101914.94;;;12.25;100.00
62418;BME280;48456;54.242;10.280;2022-07-06T02:58:12;101918.53;;;12.27;100.00
62418;BME280;48456;54.242;10.280;2022-07-06T03:00:38;101924.75;;;12.32;100.00
62418;BME280;48456;54.242;10.280;2022-07-06T03:03:04;101932.69;;;12.32;100.00
62418;BME280;48456;54.242;10.280;2022-07-06T03:05:31;101928.28;;;12.38;100.00
62418;BME280;48456;54.242;10.280;2022-07-06T03:07:57;101934.53;;;12.40;100.00
62418;BME280;48456;54.242;10.280;2022-07-06T03:10:23;101940.69;;;12.39;100.00
62418;BME280;48456;54.242;10.280;2022-07-06T03:12:50;101933.59;;;12.31;100.00
62418;BME280;48456;54.242;10.280;2022-07-06T03:15:16;101928.25;;;12.30;100.00
62418;BME280;48456;54.242;10.280;2022-07-06T03:17:42;101930.84;;;12.24;100.00
62418;BME280;48456;54.242;10.280;2022-07-06T03:20:09;101923.75;;;12.18;100.00
62418;BME280;48456;54.242;10.280;2022-07-06T03:22:35;101915.78;;;12.19;100.00
62418;BME280;48456;54.242;10.280;2022-07-06T03:25:02;101915.78;;;12.16;100.00
62418;BME280;48456;54.242;10.280;2022-07-06T03:27:28;101902.50;;;12.18;100.00
62418;BME280;48456;54.242;10.280;2022-07-06T03:29:55;101898.13;;;12.20;100.00
62418;BME280;48456;54.242;10.280;2022-07-06T03:32:21;101897.25;;;12.24;100.00
62418;BME280;48456;54.242;10.280;2022-07-06T03:34:47;101905.25;;;12.30;100.00
62418;BME280;48456;54.242;10.280;2022-07-06T03:37:13;101907.88;;;12.29;100.00
62418;BME280;48456;54.242;10.280;2022-07-06T03:39:40;101904.41;;;12.31;100.00
62418;BME280;48456;54.242;10.280;2022-07-06T03:42:06;101912.38;;;12.36;100.00
62418;BME280;48456;54.242;10.280;2022-07-06T03:44:32;101904.38;;;12.34;100.00
62418;BME280;48456;54.242;10.280;2022-07-06T03:46:59;101906.16;;;12.31;100.00
62418;BME280;48456;54.242;10.280;2022-07-06T03:49:25;101909.69;;;12.31;100.00
62418;BME280;48456;54.242;10.280;2022-07-06T03:51:53;101912.38;;;12.38;100.00
62418;BME280;48456;54.242;10.280;2022-07-06T03:54:20;101913.28;;;12.40;100.00
62418;BME280;48456;54.242;10.280;2022-07-06T03:56:47;101922.16;;;12.45;100.00
62418;BME280;48456;54.242;10.280;2022-07-06T03:59:13;101914.22;;;12.53;100.00
62418;BME280;48456;54.242;10.280;2022-07-06T04:01:40;101922.22;;;12.56;100.00
62418;BME280;48456;54.242;10.280;2022-07-06T04:04:07;101921.34;;;12.60;100.00
62418;BME280;48456;54.242;10.280;2022-07-06T04:06:33;101919.59;;;12.62;100.00
62418;BME280;48456;54.242;10.280;2022-07-06T04:09:00;101925.81;;;12.64;100.00
62418;BME280;48456;54.242;10.280;2022-07-06T04:11:27;101921.38;;;12.68;100.00
62418;BME280;48456;54.242;10.280;2022-07-06T04:13:53;101922.22;;;12.60;100.00
62418;BME280;48456;54.242;10.280;2022-07-06T04:16:20;101926.66;;;12.65;100.00
62418;BME280;48456;54.242;10.280;2022-07-06T04:18:47;101926.72;;;12.72;100.00
62418;BME280;48456;54.242;10.280;2022-07-06T04:21:13;101924.94;;;12.74;100.00
62418;BME280;48456;54.242;10.280;2022-07-06T04:23:39;101929.38;;;12.76;100.00
62418;BME280;48456;54.242;10.280;2022-07-06T04:26:06;101931.19;;;12.78;100.00
62418;BME280;48456;54.242;10.280;2022-07-06T04:28:32;101927.66;;;12.79;100.00
62418;BME280;48456;54.242;10.280;2022-07-06T04:30:58;101935.59;;;12.84;100.00
62418;BME280;48456;54.242;10.280;2022-07-06T04:33:25;101926.78;;;12.85;100.00
62418;BME280;48456;54.242;10.280;2022-07-06T04:35:51;101928.53;;;12.83;100.00
62418;BME280;48456;54.242;10.280;2022-07-06T04:38:17;101928.56;;;12.88;100.00
62418;BME280;48456;54.242;10.280;2022-07-06T04:40:44;101927.72;;;12.93;100.00
62418;BME280;48456;54.242;10.280;2022-07-06T04:43:12;101928.63;;;13.08;100.00
62418;BME280;48456;54.242;10.280;2022-07-06T04:45:39;101937.47;;;13.11;100.00
62418;BME280;48456;54.242;10.280;2022-07-06T04:48:05;101944.56;;;13.08;100.00
62418;BME280;48456;54.242;10.280;2022-07-06T04:50:34;101937.50;;;13.13;100.00
62418;BME280;48456;54.242;10.280;2022-07-06T04:53:05;101941.97;;;13.20;100.00
62418;BME280;48456;54.242;10.280;2022-07-06T04:55:32;101940.22;;;13.32;100.00
62418;BME280;48456;54.242;10.280;2022-07-06T04:57:58;101935.81;;;13.45;100.00
62418;BME280;48456;54.242;10.280;2022-07-06T05:00:24;101937.63;;;13.58;100.00
62418;BME280;48456;54.242;10.280;2022-07-06T05:02:51;101936.78;;;13.72;100.00
62418;BME280;48456;54.242;10.280;2022-07-06T05:05:17;101935.88;;;13.84;100.00
62418;BME280;48456;54.242;10.280;2022-07-06T05:07:44;101937.66;;;13.83;100.00
62418;BME280;48456;54.242;10.280;2022-07-06T05:10:10;101942.97;;;13.80;100.00
62418;BME280;48456;54.242;10.280;2022-07-06T05:12:37;101950.94;;;13.80;100.00
62418;BME280;48456;54.242;10.280;2022-07-06T05:15:03;101944.75;;;13.87;100.00
62418;BME280;48456;54.242;10.280;2022-07-06T05:17:30;101944.75;;;14.00;100.00
62418;BME280;48456;54.242;10.280;2022-07-06T05:19:57;101943.84;;;14.01;100.00
62418;BME280;48456;54.242;10.280;2022-07-06T05:22:23;101941.19;;;14.01;100.00
62418;BME280;48456;54.242;10.280;2022-07-06T05:24:50;101938.53;;;14.12;100.00
62418;BME280;48456;54.242;10.280;2022-07-06T05:27:17;101938.53;;;14.15;100.00
62418;BME280;48456;54.242;10.280;2022-07-06T05:29:43;101939.41;;;14.22;100.00
62418;BME280;48456;54.242;10.280;2022-07-06T05:32:09;101940.31;;;14.24;100.00
62418;BME280;48456;54.242;10.280;2022-07-06T05:34:36;101939.44;;;14.14;100.00
62418;BME280;48456;54.242;10.280;2022-07-06T05:37:04;101937.66;;;14.08;100.00
62418;BME280;48456;54.242;10.280;2022-07-06T05:39:30;101942.97;;;14.13;100.00
62418;BME280;48456;54.242;10.280;2022-07-06T05:41:56;101951.81;;;14.23;100.00
62418;BME280;48456;54.242;10.280;2022-07-06T05:44:23;101950.94;;;14.33;100.00
62418;BME280;48456;54.242;10.280;2022-07-06T05:46:49;101948.25;;;14.46;100.00
62418;BME280;48456;54.242;10.280;2022-07-06T05:49:15;101948.25;;;14.44;100.00
62418;BME280;48456;54.242;10.280;2022-07-06T05:52:00;101939.38;;;14.48;100.00
62418;BME280;48456;54.242;10.280;2022-07-06T05:54:27;101955.34;;;14.50;100.00
62418;BME280;48456;54.242;10.280;2022-07-06T05:56:53;101947.34;;;14.48;100.00
62418;BME280;48456;54.242;10.280;2022-07-06T05:59:19;101948.22;;;14.50;100.00
62418;BME280;48456;54.242;10.280;2022-07-06T06:01:46;101943.78;;;14.55;100.00
62418;BME280;48456;54.242;10.280;2022-07-06T06:04:12;101944.63;;;14.72;100.00
62418;BME280;48456;54.242;10.280;2022-07-06T06:06:38;101942.84;;;14.81;100.00
62418;BME280;48456;54.242;10.280;2022-07-06T06:09:05;101943.75;;;14.79;100.00
62418;BME280;48456;54.242;10.280;2022-07-06T06:11:31;101947.25;;;14.95;100.00
62418;BME280;48456;54.242;10.280;2022-07-06T06:13:58;101942.72;;;15.11;100.00
62418;BME280;48456;54.242;10.280;2022-07-06T06:16:24;101940.91;;;15.16;100.00
62418;BME280;48456;54.242;10.280;2022-07-06T06:18:50;101945.38;;;15.14;100.00
62418;BME280;48456;54.242;10.280;2022-07-06T06:21:17;101947.97;;;15.24;100.00
62418;BME280;48456;54.242;10.280;2022-07-06T06:23:43;101952.34;;;15.36;100.00
62418;BME280;48456;54.242;10.280;2022-07-06T06:26:10;101954.03;;;15.54;100.00
62418;BME280;48456;54.242;10.280;2022-07-06T06:28:37;101948.69;;;15.55;100.00
62418;BME280;48456;54.242;10.280;2022-07-06T06:31:03;101958.44;;;15.58;100.00
62418;BME280;48456;54.242;10.280;2022-07-06T06:33:30;101946.00;;;15.58;100.00
62418;BME280;48456;54.242;10.280;2022-07-06T06:35:56;101951.41;;;15.48;100.00
62418;BME280;48456;54.242;10.280;2022-07-06T06:38:23;101952.25;;;15.54;100.00
62418;BME280;48456;54.242;10.280;2022-07-06T06:40:53;101954.91;;;15.56;100.00
62418;BME280;48456;54.242;10.280;2022-07-06T06:43:20;101954.84;;;15.67;100.00
62418;BME280;48456;54.242;10.280;2022-07-06T06:45:46;101964.53;;;15.76;100.00
62418;BME280;48456;54.242;10.280;2022-07-06T06:48:13;101965.38;;;15.84;100.00
62418;BME280;48456;54.242;10.280;2022-07-06T06:50:47;101960.78;;;16.02;100.00
62418;BME280;48456;54.242;10.280;2022-07-06T06:53:13;101954.56;;;16.04;100.00
62418;BME280;48456;54.242;10.280;2022-07-06T06:55:40;101965.19;;;16.10;100.00
62418;BME280;48456;54.242;10.280;2022-07-06T06:58:08;101961.69;;;16.04;100.00
62418;BME280;48456;54.242;10.280;2022-07-06T07:00:35;101964.44;;;15.97;100.00
62418;BME280;48456;54.242;10.280;2022-07-06T07:03:01;101962.66;;;15.89;100.00
62418;BME280;48456;54.242;10.280;2022-07-06T07:05:27;101966.28;;;15.81;100.00
62418;BME280;48456;54.242;10.280;2022-07-06T07:07:54;101965.41;;;15.81;100.00
62418;BME280;48456;54.242;10.280;2022-07-06T07:10:29;101964.59;;;15.72;100.00
62418;BME280;48456;54.242;10.280;2022-07-06T07:12:56;101959.09;;;15.88;100.00
62418;BME280;48456;54.242;10.280;2022-07-06T07:15:22;101959.94;;;16.01;100.00
62418;BME280;48456;54.242;10.280;2022-07-06T07:17:48;101959.75;;;16.18;100.00
62418;BME280;48456;54.242;10.280;2022-07-06T07:20:15;101964.03;;;16.38;100.00
62418;BME280;48456;54.242;10.280;2022-07-06T07:22:41;101961.25;;;16.50;100.00
62418;BME280;48456;54.242;10.280;2022-07-06T07:25:08;101959.53;;;16.42;100.00
62418;BME280;48456;54.242;10.280;2022-07-06T07:27:34;101960.34;;;16.52;100.00
62418;BME280;48456;54.242;10.280;2022-07-06T07:30:01;101962.03;;;16.59;100.00
62418;BME280;48456;54.242;10.280;2022-07-06T07:32:27;101967.41;;;16.57;100.00
62418;BME280;48456;54.242;10.280;2022-07-06T07:34:53;101962.81;;;16.70;100.00
62418;BME280;48456;54.242;10.280;2022-07-06T07:37:20;101970.75;;;16.75;100.00
62418;BME280;48456;54.242;10.280;2022-07-06T07:39:46;101974.03;;;17.02;100.00
62418;BME280;48456;54.242;10.280;2022-07-06T07:42:13;101977.44;;;17.17;100.00
62418;BME280;48456;54.242;10.280;2022-07-06T07:44:43;101972.03;;;17.21;100.00
62418;BME280;48456;54.242;10.280;2022-07-06T07:47:10;101973.75;;;17.25;100.00
62418;BME280;48456;54.242;10.280;2022-07-06T07:49:36;101979.94;;;17.29;100.00
62418;BME280;48456;54.242;10.280;2022-07-06T07:52:02;101978.09;;;17.33;100.00
62418;BME280;48456;54.242;10.280;2022-07-06T07:54:29;101974.56;;;17.32;100.00
62418;BME280;48456;54.242;10.280;2022-07-06T07:56:55;101972.75;;;17.33;100.00
62418;BME280;48456;54.242;10.280;2022-07-06T07:59:22;101980.06;;;17.21;100.00
62418;BME280;48456;54.242;10.280;2022-07-06T08:01:48;101981.03;;;17.12;100.00
62418;BME280;48456;54.242;10.280;2022-07-06T08:04:14;101972.38;;;16.90;100.00
62418;BME280;48456;54.242;10.280;2022-07-06T08:06:41;101980.25;;;16.99;100.00
62418;BME280;48456;54.242;10.280;2022-07-06T08:09:07;101983.53;;;17.28;100.00
62418;BME280;48456;54.242;10.280;2022-07-06T08:11:34;101978.38;;;17.74;100.00
62418;BME280;48456;54.242;10.280;2022-07-06T08:14:01;101976.00;;;18.13;100.00
62418;BME280;48456;54.242;10.280;2022-07-06T08:16:27;101978.97;;;18.47;100.00
62418;BME280;48456;54.242;10.280;2022-07-06T08:18:54;101977.09;;;18.52;100.00
62418;BME280;48456;54.242;10.280;2022-07-06T08:21:20;101983.31;;;18.02;100.00
62418;BME280;48456;54.242;10.280;2022-07-06T08:23:50;101981.03;;;17.77;100.00
62418;BME280;48456;54.242;10.280;2022-07-06T08:26:16;101977.81;;;17.53;100.00
62418;BME280;48456;54.242;10.280;2022-07-06T08:28:43;101980.53;;;17.51;100.00
62418;BME280;48456;54.242;10.280;2022-07-06T08:31:09;101983.31;;;17.42;100.00
62418;BME280;48456;54.242;10.280;2022-07-06T08:33:56;101984.34;;;17.33;100.00
62418;BME280;48456;54.242;10.280;2022-07-06T08:36:22;101985.16;;;17.37;100.00
62418;BME280;48456;54.242;10.280;2022-07-06T08:38:49;101987.88;;;17.34;100.00
62418;BME280;48456;54.242;10.280;2022-07-06T08:41:16;101986.03;;;17.40;100.00
62418;BME280;48456;54.242;10.280;2022-07-06T08:43:51;101990.69;;;17.24;100.00
62418;BME280;48456;54.242;10.280;2022-07-06T08:46:18;101988.34;;;16.96;100.00
62418;BME280;48456;54.242;10.280;2022-07-06T08:48:45;101999.44;;;16.59;100.00
62418;BME280;48456;54.242;10.280;2022-07-06T08:51:12;102006.03;;;16.20;100.00
62418;BME280;48456;54.242;10.280;2022-07-06T08:53:40;102011.59;;;15.89;100.00
62418;BME280;48456;54.242;10.280;2022-07-06T08:56:07;102011.63;;;15.80;100.00
62418;BME280;48456;54.242;10.280;2022-07-06T08:58:34;102008.97;;;15.81;100.00
62418;BME280;48456;54.242;10.280;2022-07-06T09:01:00;102009.81;;;15.87;100.00
62418;BME280;48456;54.242;10.280;2022-07-06T09:03:27;102008.81;;;16.05;100.00
62418;BME280;48456;54.242;10.280;2022-07-06T09:05:56;102014.06;;;16.19;100.00
62418;BME280;48456;54.242;10.280;2022-07-06T09:08:24;102007.75;;;16.28;100.00
62418;BME280;48456;54.242;10.280;2022-07-06T09:10:53;102002.44;;;16.24;100.00
62418;BME280;48456;54.242;10.280;2022-07-06T09:13:19;101998.63;;;16.52;100.00
62418;BME280;48456;54.242;10.280;2022-07-06T09:15:46;101991.16;;;16.84;100.00
62418;BME280;48456;54.242;10.280;2022-07-06T09:18:12;101988.16;;;17.13;100.00
62418;BME280;48456;54.242;10.280;2022-07-06T09:20:42;101987.81;;;17.38;100.00
62418;BME280;48456;54.242;10.280;2022-07-06T09:23:09;101982.50;;;17.37;100.00
62418;BME280;48456;54.242;10.280;2022-07-06T09:25:41;101985.81;;;17.54;100.00
62418;BME280;48456;54.242;10.280;2022-07-06T09:28:08;101998.97;;;17.70;100.00
62418;BME280;48456;54.242;10.280;2022-07-06T09:30:34;101997.66;;;17.98;100.00
62418;BME280;48456;54.242;10.280;2022-07-06T09:33:06;102003.72;;;18.11;100.00
62418;BME280;48456;54.242;10.280;2022-07-06T09:35:37;102002.41;;;18.35;100.00
62418;BME280;48456;54.242;10.280;2022-07-06T09:38:04;101997.69;;;18.48;100.00
62418;BME280;48456;54.242;10.280;2022-07-06T09:40:32;101997.66;;;18.51;100.00
62418;BME280;48456;54.242;10.280;2022-07-06T09:43:12;101992.09;;;19.09;100.00
62418;BME280;48456;54.242;10.280;2022-07-06T09:45:39;101986.84;;;19.44;100.00
62418;BME280;48456;54.242;10.280;2022-07-06T09:48:07;101992.59;;;19.67;100.00
62418;BME280;48456;54.242;10.280;2022-07-06T09:53:20;101981.69;;;20.12;100.00
62418;BME280;48456;54.242;10.280;2022-07-06T09:55:49;101983.03;;;20.29;100.00
62418;BME280;48456;54.242;10.280;2022-07-06T09:58:17;101982.06;;;20.32;100.00
62418;BME280;48456;54.242;10.280;2022-07-06T10:00:58;101987.94;;;20.46;100.00
62418;BME280;48456;54.242;10.280;2022-07-06T10:03:24;101988.13;;;20.40;100.00
62418;BME280;48456;54.242;10.280;2022-07-06T10:05:53;101985.31;;;20.10;100.00
62418;BME280;48456;54.242;10.280;2022-07-06T10:08:20;101992.91;;;19.53;100.00
62418;BME280;48456;54.242;10.280;2022-07-06T10:10:47;101994.25;;;19.33;100.00
62418;BME280;48456;54.242;10.280;2022-07-06T10:13:18;101992.72;;;19.21;100.00
62418;BME280;48456;54.242;10.280;2022-07-06T10:15:46;101984.31;;;19.38;100.00
62418;BME280;48456;54.242;10.280;2022-07-06T10:18:12;101978.69;;;19.49;100.00
62418;BME280;48456;54.242;10.280;2022-07-06T10:20:39;101968.34;;;19.71;100.00
62418;BME280;48456;54.242;10.280;2022-07-06T10:23:07;101961.47;;;19.96;100.00
62418;BME280;48456;54.242;10.280;2022-07-06T10:25:34;101966.63;;;20.05;100.00
62418;BME280;48456;54.242;10.280;2022-07-06T10:28:01;101964.97;;;19.98;100.00
62418;BME280;48456;54.242;10.280;2022-07-06T10:30:28;101967.34;;;20.12;100.00
62418;BME280;48456;54.242;10.280;2022-07-06T10:32:56;101968.53;;;20.02;100.00
62418;BME280;48456;54.242;10.280;2022-07-06T10:35:23;101969.19;;;19.72;100.00
62418;BME280;48456;54.242;10.280;2022-07-06T10:38:05;101972.69;;;19.77;100.00
62418;BME280;48456;54.242;10.280;2022-07-06T10:40:33;101967.16;;;19.83;100.00
62418;BME280;48456;54.242;10.280;2022-07-06T10:43:18;101969.38;;;19.66;100.00
62418;BME280;48456;54.242;10.280;2022-07-06T10:50:38;101980.22;;;18.74;100.00
62418;BME280;48456;54.242;10.280;2022-07-06T10:53:39;101980.06;;;18.36;100.00
62418;BME280;48456;54.242;10.280;2022-07-06T10:56:00;101969.63;;;18.21;100.00
62418;BME280;48456;54.242;10.280;2022-07-06T10:58:40;101974.66;;;18.39;100.00
62418;BME280;48456;54.242;10.280;2022-07-06T11:01:07;101972.56;;;18.55;100.00
62418;BME280;48456;54.242;10.280;2022-07-06T11:06:22;101974.00;;;18.74;100.00
62418;BME280;48456;54.242;10.280;2022-07-06T11:08:53;101975.69;;;18.79;100.00
62418;BME280;48456;54.242;10.280;2022-07-06T11:16:16;101971.72;;;19.40;100.00
62418;BME280;48456;54.242;10.280;2022-07-06T11:18:47;101966.72;;;19.64;100.00
62418;BME280;48456;54.242;10.280;2022-07-06T11:21:14;101964.75;;;19.71;100.00
62418;BME280;48456;54.242;10.280;2022-07-06T11:23:41;101968.56;;;20.35;100.00
62418;BME280;48456;54.242;10.280;2022-07-06T11:26:08;101954.47;;;21.22;100.00
62418;BME280;48456;54.242;10.280;2022-07-06T11:28:36;101951.03;;;21.75;100.00
62418;BME280;48456;54.242;10.280;2022-07-06T11:31:03;101949.00;;;22.35;100.00
62418;BME280;48456;54.242;10.280;2022-07-06T11:33:29;101942.59;;;23.34;100.00
62418;BME280;48456;54.242;10.280;2022-07-06T11:36:12;101947.50;;;23.23;97.04
62418;BME280;48456;54.242;10.280;2022-07-06T11:38:39;101942.44;;;22.16;100.00
62418;BME280;48456;54.242;10.280;2022-07-06T11:41:05;101949.28;;;21.15;100.00
62418;BME280;48456;54.242;10.280;2022-07-06T11:43:32;101945.88;;;20.45;100.00
62418;BME280;48456;54.242;10.280;2022-07-06T11:45:58;101953.06;;;20.11;100.00
62418;BME280;48456;54.242;10.280;2022-07-06T11:48:24;101946.31;;;19.57;100.00
62418;BME280;48456;54.242;10.280;2022-07-06T11:51:00;101945.22;;;20.69;100.00
62418;BME280;48456;54.242;10.280;2022-07-06T11:53:27;101936.34;;;21.84;100.00
62418;BME280;48456;54.242;10.280;2022-07-06T11:55:54;101930.66;;;21.38;100.00
62418;BME280;48456;54.242;10.280;2022-07-06T11:58:22;101941.47;;;20.43;100.00
62418;BME280;48456;54.242;10.280;2022-07-06T12:03:30;101947.69;;;18.94;100.00
62418;BME280;48456;54.242;10.280;2022-07-06T12:05:59;101946.88;;;18.45;100.00
62418;BME280;48456;54.242;10.280;2022-07-06T12:08:25;101950.09;;;18.14;100.00
62418;BME280;48456;54.242;10.280;2022-07-06T12:10:52;101953.84;;;18.03;100.00
62418;BME280;48456;54.242;10.280;2022-07-06T12:13:19;101950.09;;;18.14;100.00
62418;BME280;48456;54.242;10.280;2022-07-06T12:15:45;101946.25;;;18.29;100.00
62418;BME280;48456;54.242;10.280;2022-07-06T12:18:12;101947.53;;;18.56;100.00
62418;BME280;48456;54.242;10.280;2022-07-06T12:20:38;101936.94;;;18.94;100.00
62418;BME280;48456;54.242;10.280;2022-07-06T12:23:05;101942.91;;;19.48;100.00
62418;BME280;48456;54.242;10.280;2022-07-06T12:25:32;101933.22;;;19.81;100.00
62418;BME280;48456;54.242;10.280;2022-07-06T12:27:59;101932.19;;;20.21;100.00
62418;BME280;48456;54.242;10.280;2022-07-06T12:30:26;101932.38;;;20.80;100.00
62418;BME280;48456;54.242;10.280;2022-07-06T12:35:37;101925.44;;;21.03;100.00
62418;BME280;48456;54.242;10.280;2022-07-06T12:38:04;101923.84;;;20.96;100.00
62418;BME280;48456;54.242;10.280;2022-07-06T12:40:30;101917.72;;;21.49;100.00
62418;BME280;48456;54.242;10.280;2022-07-06T12:42:57;101919.47;;;22.31;99.52
62418;BME280;48456;54.242;10.280;2022-07-06T12:45:27;101921.28;;;22.80;96.25
62418;BME280;48456;54.242;10.280;2022-07-06T12:48:04;101916.34;;;23.16;85.24
62418;BME280;48456;54.242;10.280;2022-07-06T12:50:35;101921.41;;;23.23;80.27
62418;BME280;48456;54.242;10.280;2022-07-06T12:53:02;101911.56;;;23.22;81.03